Leverett, Massachusetts
Current Conditions -  °F | °C
As of 1:52 PM on Friday 21 Nov 2014 (Local Time) from KORE Reporting Station
Broken Clouds Broken Clouds  
Wind Chill: 19°   Ceiling: 5000
Heat Index: 31°   Visibility: 10mi
Dew Point: 10°   Wind: 17mph
Humidity: 42%   Direction: 290°WNW
Pressure: 30.18"   Gusts: 28mph
Location:  42.45°N, 72.5°W
Report Text: KORE 211852Z AUTO 29015G24KT 10SM BKN050 BKN060 M01/M12 A3018 RMK AO2 SLP228 T10061122
Loading
Personal Weather Stations






























Interactive Weather Map New forecast layout! Learn more

10-Day Weather Forecast

Advertisements
Track Severe Weather on mobile